AirNav   Air Wisconsin Up To $57,000 Bonus
 
 372 users online  

37OR Vey Sheep Ranch Airport
Starkey, Oregon, USA

GOING TO STARKEY?


FAA INFORMATION EFFECTIVE 26 JANUARY 2023

Location

FAA Identifier: 37OR
Lat/Long: 45-05-35.4720N 118-23-55.8200W
45-05.591200N 118-23.930333W
45.0931867,-118.3988389
(estimated)
Elevation: 4158 ft. / 1267.4 m (surveyed)
Variation: 18E (1985)
From city: 9 miles S of STARKEY, OR
Time zone: UTC -8 (UTC -7 during Daylight Saving Time)
Zip code: 97850

Airport Operations

Airport use: Private use. Permission required prior to landing
Activation date: 07/1952
Control tower: no
ARTCC: SEATTLE CENTER
FSS: MC MINNVILLE FLIGHT SERVICE STATION
Attendance: UNATNDD
Wind indicator: yes
Segmented circle: no

Nearby radio navigation aids

VOR radial/distance  VOR name  Freq  Var
BKEr281/29.3BAKER CITY VOR/DME115.3020E

 
NDB name  Hdg/Dist  Freq  Var  ID
LA GRANDE217/23.729614ELGD .-.. --. -..

Airport Services

Airframe service: NONE
Powerplant service: NONE

Runway Information

Runway NE/SW

Dimensions: 4500 x 40 ft. / 1372 x 12 m
Surface: gravel
RUNWAY NE  RUNWAY SW
Traffic pattern: leftleft
Runway end identifier lights: nono

Airport Ownership and Management from official FAA records

Ownership: Privately-owned
Owner: MRS A J VEY - ROBERT SCHILLER
69958 SCHILLER DRIVE
ECHO, OR 97826
Phone 541-376-8188
Manager: MRS A J VEY - ROBERT SCHILLER
69958 SCHILLER DRIVE
ECHO, OR 97826
Phone 541-376-8188
MARILYN SCHILLER 69958 SCHILLER DR ECHO, OR 97826 541-376-8188

Additional Remarks

FOR CD CTC SEATTLE ARTCC AT 253-351-3694.

Instrument Procedures

There are no published instrument procedures at 37OR.

Some nearby airports with instrument procedures:

KLGD - La Grande/Union County Airport (20 nm NE)
KBKE - Baker City Municipal Airport (29 nm SE)
KPDT - Eastern Oregon Regional Airport at Pendleton (41 nm NW)
KGCD - Grant County Regional Airport/Ogilvie Field (48 nm SW)
KHRI - Hermiston Municipal Airport (57 nm NW)
 
Loc | Ops | Rwys | IFR | FBO | Links
Com | Nav | Svcs | Stats | Notes
Area around 37OR (Vey Sheep Ranch Airport)
 
Road maps at: MapQuest Bing Google
 
Aerial photo
WARNING: Photo may not be current or correct
Aerial photo of 37OR (Vey Sheep Ranch Airport)
Do you have a better or more recent aerial photo of Vey Sheep Ranch Airport that you would like to share? If so, please send us your photo.

 
Sectional chart

 
Airport distance calculator
Flying to Vey Sheep Ranch Airport? Find the distance to fly.

From to 37OR

Sunrise and sunset
Times for 05-Feb-2023
 Local
(UTC-8)
 Zulu
(UTC)
Morning civil twilight06:3914:39
Sunrise07:1015:10
Sunset17:0601:06
Evening civil twilight17:3701:37

Current date and time
Zulu (UTC)  05-Feb-2023 09:07:42
Local (UTC-8)  05-Feb-2023 01:07:42
 
METAR
KLGD 
20nm NE 
050856Z AUTO 15017KT 10SM OVC085 05/M02 A2979 RMK AO2 RAE13 SLP097 P0000 60000 T00501017 58036
KMEH 
25nm N 
050856Z AUTO VRB03KT 10SM BKN018 OVC033 01/M01 A2973 RMK AO2 UPB42E44SNE42 SLP079 P0001 60001 T00111006 58034
KBKE 
29nm SE 
050853Z AUTO 11012KT 10SM BKN060 OVC080 03/M03 A2983 RMK AO2 SLP111 T00331033 58030
TAF
KBKE 
29nm SE 
050540Z 0506/0606 11014KT P6SM OVC090 FM050900 12010KT 4SM -SN BR OVC030 FM051700 14006KT P6SM OVC050 FM052300 14010KT 4SM -SN BR OVC030
NOTAMs
Click for the latest NOTAMs
NOTAMs are issued by the DoD/FAA and will open in a separate window not controlled by AirNav.

 

 
 

Would you like to see your business listed on this page?

 If your business provides an interesting product or service to pilots, flight crews, aircraft, or users of the Vey Sheep Ranch Airport, you should consider listing it here.  To start the listing process, click on the button below
 
Add a business
 

Other Pages about Vey Sheep Ranch Airport

Update a link
 
Copyright © AirNav, LLC. All rights reserved. Privacy Policy  Contact